createdAt,value
2023-05-21T00:01:16.038Z,97511.91
2023-05-21T00:03:46.129Z,97511.84
2023-05-21T00:06:15.541Z,97503.16
2023-05-21T00:08:44.536Z,97507.97
2023-05-21T00:11:12.070Z,97512.81
2023-05-21T00:13:39.606Z,97509.59
2023-05-21T00:16:07.964Z,97512.22
2023-05-21T00:18:35.588Z,97510.78
2023-05-21T00:21:03.107Z,97509.97
2023-05-21T00:23:32.598Z,97502.94
2023-05-21T00:26:01.498Z,97500.16
2023-05-21T00:28:29.068Z,97499.72
2023-05-21T00:30:56.585Z,97506.22
2023-05-21T00:33:26.431Z,97501.19
2023-05-21T00:35:54.065Z,97501.16
2023-05-21T00:38:22.130Z,97496.47
2023-05-21T00:40:49.896Z,97495.22
2023-05-21T00:43:18.850Z,97494.75
2023-05-21T00:45:47.438Z,97490.16
2023-05-21T00:48:15.960Z,97485.97
2023-05-21T00:50:44.860Z,97491.63
2023-05-21T00:53:12.537Z,97491.19
2023-05-21T00:55:40.600Z,97500.59
2023-05-21T00:58:08.965Z,97490.38
2023-05-21T01:00:40.470Z,97496.56
2023-05-21T01:03:08.345Z,97494.06
2023-05-21T01:05:36.905Z,97490.88
2023-05-21T01:08:05.023Z,97488.56
2023-05-21T01:10:32.611Z,97481.81
2023-05-21T01:13:00.702Z,97487.88
2023-05-21T01:15:28.391Z,97483.75
2023-05-21T01:17:57.418Z,97484.78
2023-05-21T01:20:25.422Z,97473.94
2023-05-21T01:22:55.253Z,97477.00
2023-05-21T01:25:25.644Z,97475.09
2023-05-21T01:27:53.474Z,97483.59
2023-05-21T01:30:22.213Z,97469.13
2023-05-21T01:32:56.667Z,97484.31
2023-05-21T01:35:27.876Z,97469.06
2023-05-21T01:38:00.974Z,97467.69
2023-05-21T01:40:32.612Z,97466.22
2023-05-21T01:43:00.872Z,97474.41
2023-05-21T01:45:31.397Z,97464.09
2023-05-21T01:47:59.301Z,97474.28
2023-05-21T01:50:27.496Z,97458.59
2023-05-21T01:52:58.567Z,97475.53
2023-05-21T01:55:26.172Z,97476.22
2023-05-21T01:57:54.389Z,97461.19
2023-05-21T02:00:22.287Z,97463.06
2023-05-21T02:02:50.282Z,97471.34
2023-05-21T02:05:18.213Z,97459.78
2023-05-21T02:07:46.257Z,97460.81
2023-05-21T02:10:15.920Z,97446.00
2023-05-21T02:12:44.103Z,97467.47
2023-05-21T02:15:11.684Z,97458.88
2023-05-21T02:17:39.403Z,97462.72
2023-05-21T02:20:12.190Z,97458.66
2023-05-21T02:22:40.489Z,97456.91
2023-05-21T02:25:09.750Z,97454.47
2023-05-21T02:27:39.580Z,97459.16
2023-05-21T02:30:09.090Z,97459.38
2023-05-21T02:32:37.054Z,97457.34
2023-05-21T02:35:05.486Z,97454.22
2023-05-21T02:37:34.248Z,97456.66
2023-05-21T02:40:03.600Z,97454.56
2023-05-21T02:42:31.316Z,97461.38
2023-05-21T02:45:00.418Z,97448.56
2023-05-21T02:47:28.024Z,97451.28
2023-05-21T02:49:55.822Z,97453.72
2023-05-21T02:52:24.489Z,97454.53
2023-05-21T02:54:52.823Z,97451.44
2023-05-21T02:57:20.641Z,97448.91
2023-05-21T02:59:48.234Z,97435.94
2023-05-21T03:02:17.250Z,97438.03
2023-05-21T03:04:46.856Z,97439.69
2023-05-21T03:07:15.179Z,97440.72
2023-05-21T03:09:43.234Z,97441.94
2023-05-21T03:12:11.338Z,97437.63
2023-05-21T03:14:39.143Z,97442.41
2023-05-21T03:17:07.710Z,97448.81
2023-05-21T03:19:36.804Z,97442.63
2023-05-21T03:22:05.969Z,97439.44
2023-05-21T03:24:38.118Z,97441.81
2023-05-21T03:27:07.249Z,97448.22
2023-05-21T03:29:36.139Z,97448.84
2023-05-21T03:32:04.301Z,97449.66
2023-05-21T03:34:35.592Z,97447.81
2023-05-21T03:37:05.622Z,97451.53
2023-05-21T03:39:34.441Z,97459.41
2023-05-21T03:42:02.090Z,97449.25
2023-05-21T03:44:38.416Z,97451.47
2023-05-21T03:47:27.093Z,97448.59
2023-05-21T03:49:54.959Z,97454.41
2023-05-21T03:52:23.958Z,97454.78
2023-05-21T03:54:51.822Z,97456.25
2023-05-21T03:57:19.696Z,97451.34
2023-05-21T03:59:48.612Z,97456.72
2023-05-21T04:02:16.644Z,97455.94
2023-05-21T04:04:45.381Z,97464.06
2023-05-21T04:07:15.327Z,97453.22
2023-05-21T04:09:44.228Z,97459.00
2023-05-21T04:12:11.818Z,97460.44
2023-05-21T04:14:39.393Z,97463.88
2023-05-21T04:17:07.017Z,97464.34
2023-05-21T04:19:34.774Z,97465.56
2023-05-21T04:22:04.390Z,97459.81
2023-05-21T04:24:32.369Z,97464.50
2023-05-21T04:27:11.235Z,97461.50
2023-05-21T04:29:42.762Z,97466.25
2023-05-21T04:32:15.005Z,97467.88
2023-05-21T04:34:42.942Z,97456.72
2023-05-21T04:37:10.615Z,97467.19
2023-05-21T04:39:38.394Z,97467.19
2023-05-21T04:42:06.923Z,97470.63
2023-05-21T04:44:35.813Z,97470.69
2023-05-21T04:47:04.637Z,97470.09
2023-05-21T04:49:34.861Z,97476.06
2023-05-21T04:52:02.621Z,97473.44
2023-05-21T04:54:30.177Z,97477.13
2023-05-21T04:56:58.135Z,97478.72
2023-05-21T04:59:25.665Z,97476.72
2023-05-21T05:01:54.826Z,97473.44
2023-05-21T05:04:22.934Z,97473.53
2023-05-21T05:06:51.854Z,97481.09
2023-05-21T05:09:21.493Z,97478.63
2023-05-21T05:11:49.017Z,97474.94
2023-05-21T05:14:16.608Z,97480.84
2023-05-21T05:16:48.106Z,97470.69
2023-05-21T05:19:18.200Z,97480.59
2023-05-21T05:21:45.917Z,97478.88
2023-05-21T05:24:13.555Z,97468.09
2023-05-21T05:26:41.229Z,97475.47
2023-05-21T05:29:08.788Z,97466.56
2023-05-21T05:31:37.338Z,97470.41
2023-05-21T05:34:05.318Z,97470.75
2023-05-21T05:36:34.626Z,97473.56
2023-05-21T05:39:03.834Z,97467.72
2023-05-21T05:41:31.495Z,97474.53
2023-05-21T05:43:59.044Z,97473.06
2023-05-21T05:46:30.337Z,97473.16
2023-05-21T05:48:58.479Z,97465.41
2023-05-21T05:51:26.014Z,97479.78
2023-05-21T05:53:54.897Z,97472.34
2023-05-21T05:56:22.893Z,97470.09
2023-05-21T05:58:50.596Z,97472.13
2023-05-21T06:01:19.537Z,97468.72
2023-05-21T06:03:47.362Z,97467.84
2023-05-21T06:06:17.977Z,97461.59
2023-05-21T06:08:46.276Z,97475.25
2023-05-21T06:11:17.191Z,97467.72
2023-05-21T06:13:45.161Z,97467.78
2023-05-21T06:16:18.023Z,97471.59
2023-05-21T06:18:46.006Z,97469.56
2023-05-21T06:21:13.701Z,97465.88
2023-05-21T06:23:41.696Z,97459.84
2023-05-21T06:26:10.106Z,97463.41
2023-05-21T06:28:39.084Z,97458.91
2023-05-21T06:31:07.436Z,97449.00
2023-05-21T06:33:37.133Z,97453.72
2023-05-21T06:36:05.100Z,97462.63
2023-05-21T06:38:33.074Z,97461.59
2023-05-21T06:41:01.975Z,97458.88
2023-05-21T06:43:47.933Z,97465.44
2023-05-21T06:46:35.537Z,97463.91
2023-05-21T06:49:07.172Z,97457.69
2023-05-21T06:51:35.237Z,97460.16
2023-05-21T06:54:05.038Z,97445.13
2023-05-21T06:56:34.494Z,97449.03
2023-05-21T06:59:03.413Z,97450.34
2023-05-21T07:01:32.361Z,97453.66
2023-05-21T07:04:00.623Z,97446.13
2023-05-21T07:06:28.184Z,97448.19
2023-05-21T07:08:56.672Z,97452.84
2023-05-21T07:11:28.638Z,97445.22
2023-05-21T07:14:00.324Z,97455.13
2023-05-21T07:16:31.441Z,97451.91
2023-05-21T07:18:59.804Z,97448.69
2023-05-21T07:21:27.606Z,97451.25
2023-05-21T07:23:56.640Z,97441.63
2023-05-21T07:26:26.023Z,97443.13
2023-05-21T07:28:53.833Z,97453.88
2023-05-21T07:31:21.447Z,97443.88
2023-05-21T07:33:53.056Z,97439.44
2023-05-21T07:36:24.790Z,97433.22
2023-05-21T07:38:52.963Z,97446.94
2023-05-21T07:41:21.991Z,97438.63
2023-05-21T07:43:50.994Z,97437.94
2023-05-21T07:46:18.830Z,97438.59
2023-05-21T07:48:49.974Z,97433.75
2023-05-21T07:51:18.897Z,97426.75
2023-05-21T07:53:46.755Z,97429.50
2023-05-21T07:56:16.631Z,97422.97
2023-05-21T07:58:45.821Z,97431.59
2023-05-21T08:01:14.861Z,97425.59
2023-05-21T08:03:43.319Z,97434.84
2023-05-21T08:06:11.087Z,97408.41
2023-05-21T08:08:40.080Z,97407.00
2023-05-21T08:11:07.606Z,97425.78
2023-05-21T08:13:35.909Z,97428.53
2023-05-21T08:16:05.940Z,97425.16
2023-05-21T08:18:33.697Z,97424.00
2023-05-21T08:21:01.885Z,97417.34
2023-05-21T08:23:29.905Z,97426.50
2023-05-21T08:26:01.584Z,97430.53
2023-05-21T08:28:31.321Z,97422.56
2023-05-21T08:31:01.319Z,97431.91
2023-05-21T08:33:29.100Z,97429.38
2023-05-21T08:35:56.682Z,97428.09
2023-05-21T08:38:31.682Z,97434.78
2023-05-21T08:41:10.168Z,97436.69
2023-05-21T08:43:38.846Z,97435.03
2023-05-21T08:46:07.870Z,97424.91
2023-05-21T08:48:38.362Z,97431.56
2023-05-21T08:51:07.144Z,97437.28
2023-05-21T08:53:40.472Z,97432.03
2023-05-21T08:56:13.096Z,97443.41
2023-05-21T08:58:49.924Z,97429.47
2023-05-21T09:01:22.388Z,97436.81
2023-05-21T09:04:04.944Z,97435.72
2023-05-21T09:06:36.447Z,97440.44
2023-05-21T09:09:07.834Z,97435.84
2023-05-21T09:11:46.340Z,97430.97
2023-05-21T09:14:14.680Z,97424.94
2023-05-21T09:17:03.454Z,97426.22
2023-05-21T09:19:32.365Z,97431.03
2023-05-21T09:22:02.822Z,97440.34
2023-05-21T09:24:33.744Z,97434.06
2023-05-21T09:27:07.522Z,97432.00
2023-05-21T09:29:35.296Z,97422.59
2023-05-21T09:32:07.414Z,97431.06
2023-05-21T09:34:37.251Z,97433.59
2023-05-21T09:37:16.510Z,97412.81
2023-05-21T09:39:54.112Z,97412.06
2023-05-21T09:42:23.305Z,97409.66
2023-05-21T09:44:51.406Z,97423.63
2023-05-21T09:47:22.326Z,97415.03
2023-05-21T09:49:50.189Z,97413.19
2023-05-21T09:52:24.966Z,97418.53
2023-05-21T09:54:53.100Z,97417.03
2023-05-21T09:57:26.196Z,97412.84
2023-05-21T09:59:54.055Z,97420.97
2023-05-21T10:02:23.096Z,97418.06
2023-05-21T10:04:52.845Z,97416.50
2023-05-21T10:07:26.135Z,97421.19
2023-05-21T10:09:56.037Z,97417.66
2023-05-21T10:12:24.257Z,97423.34
2023-05-21T10:15:00.301Z,97413.09
2023-05-21T10:17:28.717Z,97426.38
2023-05-21T10:19:57.944Z,97428.09
2023-05-21T10:22:26.027Z,97424.53
2023-05-21T10:24:53.924Z,97421.63
2023-05-21T10:27:22.618Z,97416.69
2023-05-21T10:29:50.995Z,97418.00
2023-05-21T10:32:22.500Z,97423.50
2023-05-21T10:34:50.702Z,97414.53
2023-05-21T10:37:18.568Z,97416.97
2023-05-21T10:39:46.872Z,97416.56
2023-05-21T10:42:21.106Z,97421.66
2023-05-21T10:45:02.833Z,97416.34
2023-05-21T10:47:45.116Z,97425.38
2023-05-21T10:50:27.988Z,97416.03
2023-05-21T10:53:04.818Z,97412.19
2023-05-21T10:55:43.912Z,97409.81
2023-05-21T10:58:36.206Z,97410.25
2023-05-21T11:01:03.937Z,97400.50
2023-05-21T11:03:35.029Z,97410.72
2023-05-21T11:06:06.429Z,97410.91
2023-05-21T11:08:36.118Z,97403.44
2023-05-21T11:11:04.829Z,97407.97
2023-05-21T11:13:48.699Z,97408.28
2023-05-21T11:16:16.446Z,97398.63
2023-05-21T11:19:04.269Z,97404.25
2023-05-21T11:21:32.608Z,97391.97
2023-05-21T11:24:03.921Z,97407.56
2023-05-21T11:27:02.220Z,97402.31
2023-05-21T11:29:34.361Z,97392.78
2023-05-21T11:32:02.821Z,97394.34
2023-05-21T11:34:39.405Z,97400.44
2023-05-21T11:37:28.853Z,97391.03
2023-05-21T11:39:57.249Z,97380.41
2023-05-21T11:42:32.008Z,97392.84
2023-05-21T11:45:00.394Z,97386.78
2023-05-21T11:47:28.953Z,97385.44
2023-05-21T11:49:59.859Z,97382.28
2023-05-21T11:52:29.450Z,97366.38
2023-05-21T11:54:58.276Z,97381.03
2023-05-21T11:57:30.859Z,97371.81
2023-05-21T11:59:59.563Z,97368.16
2023-05-21T12:02:29.072Z,97378.56
2023-05-21T12:05:00.541Z,97375.19
2023-05-21T12:07:29.953Z,97371.50
2023-05-21T12:09:57.810Z,97387.84
2023-05-21T12:12:30.795Z,97380.56
2023-05-21T12:15:03.929Z,97371.56
2023-05-21T12:17:32.080Z,97370.81
2023-05-21T12:20:02.095Z,97375.16
2023-05-21T12:22:29.890Z,97373.44
2023-05-21T12:25:00.964Z,97371.78
2023-05-21T12:27:28.684Z,97361.69
2023-05-21T12:29:56.555Z,97367.72
2023-05-21T12:32:24.073Z,97373.88
2023-05-21T12:34:54.497Z,97369.28
2023-05-21T12:37:25.323Z,97369.16
2023-05-21T12:39:54.239Z,97362.72
2023-05-21T12:42:26.095Z,97372.78
2023-05-21T12:44:54.337Z,97367.16
2023-05-21T12:47:24.766Z,97366.38
2023-05-21T12:49:55.604Z,97348.38
2023-05-21T12:52:25.435Z,97363.84
2023-05-21T12:54:54.270Z,97363.09
2023-05-21T12:57:24.176Z,97354.22
2023-05-21T12:59:52.851Z,97361.84
2023-05-21T13:02:22.470Z,97364.03
2023-05-21T13:04:54.852Z,97341.47
2023-05-21T13:07:23.851Z,97360.34
2023-05-21T13:09:53.230Z,97354.97
2023-05-21T13:12:22.370Z,97337.66
2023-05-21T13:14:50.841Z,97344.94
2023-05-21T13:17:18.520Z,97344.25
2023-05-21T13:20:06.643Z,97342.84
2023-05-21T13:22:36.380Z,97348.28
2023-05-21T13:25:04.145Z,97357.47
2023-05-21T13:27:31.670Z,97339.13
2023-05-21T13:29:59.336Z,97336.31
2023-05-21T13:32:27.007Z,97343.81
2023-05-21T13:34:54.649Z,97342.25
2023-05-21T13:37:22.182Z,97325.22
2023-05-21T13:39:51.050Z,97335.50
2023-05-21T13:42:19.606Z,97323.06
2023-05-21T13:44:47.526Z,97318.81
2023-05-21T13:47:15.105Z,97324.84
2023-05-21T13:49:43.297Z,97318.16
2023-05-21T13:52:11.076Z,97320.59
2023-05-21T13:54:38.620Z,97321.28
2023-05-21T13:57:07.609Z,97320.53
2023-05-21T13:59:36.228Z,97323.28
2023-05-21T14:02:03.976Z,97307.66
2023-05-21T14:04:31.589Z,97315.91
2023-05-21T14:06:59.166Z,97318.03
2023-05-21T14:09:27.230Z,97309.59
2023-05-21T14:11:55.123Z,97313.56
2023-05-21T14:14:24.365Z,97324.16
2023-05-21T14:16:52.669Z,97322.94
2023-05-21T14:19:20.440Z,97320.56
2023-05-21T14:21:48.044Z,97313.47
2023-05-21T14:24:15.694Z,97299.63
2023-05-21T14:26:43.270Z,97305.31
2023-05-21T14:29:10.988Z,97306.50
2023-05-21T14:31:40.173Z,97303.44
2023-05-21T14:34:08.789Z,97302.72
2023-05-21T14:36:36.359Z,97303.13
2023-05-21T14:39:04.261Z,97309.41
2023-05-21T14:41:31.945Z,97313.94
2023-05-21T14:43:59.533Z,97320.53
2023-05-21T14:46:27.128Z,97301.78
2023-05-21T14:48:59.417Z,97305.41
2023-05-21T14:51:27.089Z,97305.97
2023-05-21T14:53:55.734Z,97305.22
2023-05-21T14:56:26.196Z,97307.13
2023-05-21T14:58:53.761Z,97299.03
2023-05-21T15:01:21.565Z,97308.47
2023-05-21T15:03:49.402Z,97314.78
2023-05-21T15:06:18.459Z,97312.97
2023-05-21T15:08:46.019Z,97315.06
2023-05-21T15:11:13.631Z,97305.66
2023-05-21T15:13:41.226Z,97307.59
2023-05-21T15:16:08.858Z,97310.44
2023-05-21T15:18:36.390Z,97305.16
2023-05-21T15:21:03.989Z,97312.56
2023-05-21T15:23:32.841Z,97302.59
2023-05-21T15:26:00.411Z,97300.06
2023-05-21T15:28:29.224Z,97305.97
2023-05-21T15:30:56.860Z,97305.03
2023-05-21T15:33:24.615Z,97298.75
2023-05-21T15:35:52.227Z,97303.94
2023-05-21T15:38:19.810Z,97305.16
2023-05-21T15:40:48.748Z,97300.59
2023-05-21T15:43:16.302Z,97295.22
2023-05-21T15:45:43.863Z,97296.25
2023-05-21T15:48:12.397Z,97289.44
2023-05-21T15:50:40.421Z,97284.47
2023-05-21T15:53:08.011Z,97296.13
2023-05-21T15:55:35.831Z,97288.56
2023-05-21T15:58:05.235Z,97290.47
2023-05-21T16:00:32.857Z,97286.19
2023-05-21T16:03:00.412Z,97288.56
2023-05-21T16:05:28.057Z,97283.16
2023-05-21T16:07:55.623Z,97287.13
2023-05-21T16:10:23.676Z,97288.41
2023-05-21T16:12:51.246Z,97289.06
2023-05-21T16:15:20.100Z,97282.34
2023-05-21T16:17:48.043Z,97279.28
2023-05-21T16:20:16.129Z,97279.91
2023-05-21T16:22:43.760Z,97276.56
2023-05-21T16:25:11.263Z,97287.94
2023-05-21T16:27:38.836Z,97279.91
2023-05-21T16:30:07.688Z,97287.50
2023-05-21T16:32:36.712Z,97281.00
2023-05-21T16:35:04.914Z,97282.13
2023-05-21T16:37:32.508Z,97275.63
2023-05-21T16:40:00.063Z,97279.66
2023-05-21T16:42:27.667Z,97285.13
2023-05-21T16:44:55.214Z,97273.19
2023-05-21T16:47:22.820Z,97275.59
2023-05-21T16:49:52.546Z,97271.13
2023-05-21T16:52:20.084Z,97269.81
2023-05-21T16:54:48.896Z,97275.16
2023-05-21T16:57:16.798Z,97269.38
2023-05-21T16:59:44.608Z,97272.91
2023-05-21T17:02:13.136Z,97276.16
2023-05-21T17:04:40.697Z,97269.66
2023-05-21T17:07:09.530Z,97271.66
2023-05-21T17:09:37.099Z,97268.78
2023-05-21T17:12:05.265Z,97272.31
2023-05-21T17:14:34.889Z,97267.78
2023-05-21T17:17:03.390Z,97271.38
2023-05-21T17:19:31.132Z,97267.63
2023-05-21T17:21:58.941Z,97263.66
2023-05-21T17:24:27.824Z,97267.88
2023-05-21T17:26:55.639Z,97270.47
2023-05-21T17:29:23.219Z,97274.66
2023-05-21T17:31:51.000Z,97270.81
2023-05-21T17:34:18.978Z,97278.81
2023-05-21T17:36:46.523Z,97275.13
2023-05-21T17:39:14.093Z,97279.19
2023-05-21T17:41:42.974Z,97273.81
2023-05-21T17:44:12.727Z,97279.09
2023-05-21T17:46:40.477Z,97272.06
2023-05-21T17:49:08.570Z,97280.03
2023-05-21T17:51:36.930Z,97280.09
2023-05-21T17:54:04.754Z,97276.63
2023-05-21T17:56:34.286Z,97282.16
2023-05-21T17:59:03.145Z,97279.78
2023-05-21T18:01:30.885Z,97283.38
2023-05-21T18:03:58.550Z,97280.94
2023-05-21T18:06:27.798Z,97290.06
2023-05-21T18:08:55.694Z,97298.31
2023-05-21T18:11:24.172Z,97295.59
2023-05-21T18:13:51.815Z,97296.53
2023-05-21T18:16:20.854Z,97300.38
2023-05-21T18:18:48.487Z,97291.97
2023-05-21T18:21:16.141Z,97305.13
2023-05-21T18:23:44.485Z,97304.91
2023-05-21T18:26:12.613Z,97309.63
2023-05-21T18:28:40.663Z,97307.72
2023-05-21T18:31:08.234Z,97303.94
2023-05-21T18:33:38.352Z,97309.91
2023-05-21T18:36:06.365Z,97309.66
2023-05-21T18:38:36.557Z,97305.88
2023-05-21T18:41:05.050Z,97313.28
2023-05-21T18:43:32.661Z,97318.22
2023-05-21T18:46:00.615Z,97313.66
2023-05-21T18:48:28.187Z,97313.16
2023-05-21T18:50:57.081Z,97315.13
2023-05-21T18:53:24.631Z,97317.91
2023-05-21T18:55:52.210Z,97324.50
2023-05-21T18:58:19.900Z,97322.97
2023-05-21T19:00:47.404Z,97320.25
2023-05-21T19:03:17.238Z,97320.84
2023-05-21T19:05:45.195Z,97323.56
2023-05-21T19:08:15.943Z,97325.50
2023-05-21T19:10:43.732Z,97326.38
2023-05-21T19:13:11.421Z,97326.69
2023-05-21T19:15:39.818Z,97325.59
2023-05-21T19:18:08.203Z,97333.56
2023-05-21T19:20:36.749Z,97326.47
2023-05-21T19:23:04.866Z,97329.25
2023-05-21T19:25:33.861Z,97331.97
2023-05-21T19:28:01.688Z,97333.06
2023-05-21T19:30:29.275Z,97333.88
2023-05-21T19:32:56.829Z,97333.88
2023-05-21T19:35:24.463Z,97332.25
2023-05-21T19:37:54.445Z,97344.00
2023-05-21T19:40:23.124Z,97338.59
2023-05-21T19:42:52.040Z,97346.22
2023-05-21T19:45:21.310Z,97344.34
2023-05-21T19:47:49.113Z,97340.78
2023-05-21T19:50:17.933Z,97336.72
2023-05-21T19:52:45.594Z,97352.75
2023-05-21T19:55:14.006Z,97355.78
2023-05-21T19:57:42.760Z,97349.78
2023-05-21T20:00:13.833Z,97350.63
2023-05-21T20:02:41.700Z,97350.91
2023-05-21T20:05:10.427Z,97342.22
2023-05-21T20:07:38.036Z,97349.56
2023-05-21T20:10:06.376Z,97346.56
2023-05-21T20:12:34.032Z,97345.75
2023-05-21T20:15:01.706Z,97348.78
2023-05-21T20:17:33.857Z,97346.00
2023-05-21T20:20:07.401Z,97345.75
2023-05-21T20:22:34.965Z,97341.41
2023-05-21T20:25:03.863Z,97346.84
2023-05-21T20:27:32.040Z,97352.00
2023-05-21T20:29:59.634Z,97345.75
2023-05-21T20:32:27.298Z,97353.88
2023-05-21T20:35:03.412Z,97352.00
2023-05-21T20:37:33.839Z,97355.00
2023-05-21T20:40:01.464Z,97357.44
2023-05-21T20:42:33.963Z,97357.19
2023-05-21T20:45:01.820Z,97359.34
2023-05-21T20:47:30.290Z,97360.16
2023-05-21T20:50:00.473Z,97361.25
2023-05-21T20:52:28.080Z,97348.75
2023-05-21T20:54:56.550Z,97358.22
2023-05-21T20:57:26.185Z,97361.22
2023-05-21T20:59:53.884Z,97349.00
2023-05-21T21:02:22.833Z,97353.34
2023-05-21T21:04:51.242Z,97354.16
2023-05-21T21:07:20.575Z,97353.34
2023-05-21T21:09:49.442Z,97349.00
2023-05-21T21:14:47.459Z,97351.38
2023-05-21T21:17:14.989Z,97350.50
2023-05-21T21:19:42.601Z,97353.69
2023-05-21T21:22:10.193Z,97355.75
2023-05-21T21:24:39.083Z,97359.75
2023-05-21T21:27:06.937Z,97360.00
2023-05-21T21:29:34.504Z,97362.28
2023-05-21T21:32:02.345Z,97357.03
2023-05-21T21:34:29.938Z,97367.78
2023-05-21T21:36:57.487Z,97355.94
2023-05-21T21:39:26.180Z,97359.47
2023-05-21T21:41:55.090Z,97352.25
2023-05-21T21:44:22.669Z,97354.47
2023-05-21T21:46:50.191Z,97351.88
2023-05-21T21:49:18.103Z,97354.59
2023-05-21T21:51:45.674Z,97367.41
2023-05-21T21:54:13.707Z,97367.94
2023-05-21T21:56:41.355Z,97367.31
2023-05-21T21:59:10.372Z,97366.59
2023-05-21T22:01:38.024Z,97370.22
2023-05-21T22:04:06.214Z,97368.03
2023-05-21T22:06:33.956Z,97367.47
2023-05-21T22:09:02.650Z,97361.97
2023-05-21T22:11:30.383Z,97360.47
2023-05-21T22:14:00.328Z,97367.50
2023-05-21T22:16:29.278Z,97365.13
2023-05-21T22:18:58.105Z,97359.91
2023-05-21T22:21:27.232Z,97361.19
2023-05-21T22:23:54.926Z,97362.78
2023-05-21T22:26:23.005Z,97357.94
2023-05-21T22:28:50.594Z,97357.88
2023-05-21T22:31:18.181Z,97354.28
2023-05-21T22:33:47.310Z,97354.06
2023-05-21T22:36:14.863Z,97361.56
2023-05-21T22:38:43.457Z,97362.75
2023-05-21T22:41:11.274Z,97352.25
2023-05-21T22:43:38.894Z,97363.25
2023-05-21T22:46:06.593Z,97359.03
2023-05-21T22:48:34.523Z,97358.31
2023-05-21T22:51:04.546Z,97358.78
2023-05-21T22:53:32.471Z,97357.84
2023-05-21T22:56:01.118Z,97355.66
2023-05-21T22:58:28.667Z,97356.47
2023-05-21T23:00:56.186Z,97353.38
2023-05-21T23:03:23.795Z,97354.63
2023-05-21T23:05:51.417Z,97355.63
2023-05-21T23:08:20.448Z,97353.69
2023-05-21T23:10:48.138Z,97356.22
2023-05-21T23:13:15.702Z,97357.03
2023-05-21T23:15:43.547Z,97356.94
2023-05-21T23:18:11.480Z,97356.78
2023-05-21T23:20:40.982Z,97356.31
2023-05-21T23:23:09.068Z,97357.53
2023-05-21T23:25:38.014Z,97352.47
2023-05-21T23:28:05.812Z,97351.09
2023-05-21T23:30:33.362Z,97350.75
2023-05-21T23:33:01.179Z,97348.81
2023-05-21T23:35:28.789Z,97362.56
2023-05-21T23:37:56.548Z,97355.09
2023-05-21T23:40:24.124Z,97354.84
2023-05-21T23:42:52.971Z,97355.38
2023-05-21T23:45:20.685Z,97360.22
2023-05-21T23:47:48.295Z,97352.88
2023-05-21T23:50:15.969Z,97360.09
2023-05-21T23:52:43.582Z,97357.75
2023-05-21T23:55:14.532Z,97358.91
2023-05-21T23:57:42.076Z,97365.44
